sensor_id;sensor_type;location;lat;lon;timestamp;P1;durP1;ratioP1;P2;durP2;ratioP2
10511;SDS011;5304;48.604;2.096;2023-08-06T03:55:32;3.60;;;2.73;;
10511;SDS011;5304;48.604;2.096;2023-08-06T03:58:16;4.00;;;2.30;;
10511;SDS011;5304;48.604;2.096;2023-08-06T04:01:01;4.60;;;2.60;;
10511;SDS011;5304;48.604;2.096;2023-08-06T04:03:46;3.47;;;2.40;;
10511;SDS011;5304;48.604;2.096;2023-08-06T04:06:30;5.03;;;2.33;;
10511;SDS011;5304;48.604;2.096;2023-08-06T04:09:14;5.13;;;2.43;;
10511;SDS011;5304;48.604;2.096;2023-08-06T04:11:59;3.33;;;2.40;;
10511;SDS011;5304;48.604;2.096;2023-08-06T04:14:45;5.60;;;2.43;;
10511;SDS011;5304;48.604;2.096;2023-08-06T04:17:29;4.30;;;2.47;;
10511;SDS011;5304;48.604;2.096;2023-08-06T04:20:14;4.87;;;2.33;;
10511;SDS011;5304;48.604;2.096;2023-08-06T04:22:58;6.43;;;2.47;;
10511;SDS011;5304;48.604;2.096;2023-08-06T04:25:44;5.63;;;2.20;;
10511;SDS011;5304;48.604;2.096;2023-08-06T04:28:28;3.33;;;2.20;;
10511;SDS011;5304;48.604;2.096;2023-08-06T04:31:12;5.90;;;3.07;;
10511;SDS011;5304;48.604;2.096;2023-08-06T04:33:56;3.20;;;2.40;;
10511;SDS011;5304;48.604;2.096;2023-08-06T04:36:41;4.67;;;2.40;;
10511;SDS011;5304;48.604;2.096;2023-08-06T04:39:25;3.87;;;2.50;;
10511;SDS011;5304;48.604;2.096;2023-08-06T04:42:10;3.73;;;2.50;;
10511;SDS011;5304;48.604;2.096;2023-08-06T04:44:55;4.73;;;2.17;;
10511;SDS011;5304;48.604;2.096;2023-08-06T04:47:39;4.53;;;2.30;;
10511;SDS011;5304;48.604;2.096;2023-08-06T04:50:23;2.50;;;2.10;;
10511;SDS011;5304;48.604;2.096;2023-08-06T04:53:07;3.10;;;2.50;;
10511;SDS011;5304;48.604;2.096;2023-08-06T04:55:51;5.23;;;2.07;;
10511;SDS011;5304;48.604;2.096;2023-08-06T04:58:35;7.57;;;2.80;;
10511;SDS011;5304;48.604;2.096;2023-08-06T05:01:20;4.90;;;2.60;;
10511;SDS011;5304;48.604;2.096;2023-08-06T05:04:04;5.07;;;2.80;;
10511;SDS011;5304;48.604;2.096;2023-08-06T05:06:48;3.30;;;2.17;;
10511;SDS011;5304;48.604;2.096;2023-08-06T05:09:32;4.07;;;2.13;;
10511;SDS011;5304;48.604;2.096;2023-08-06T05:12:17;6.17;;;2.27;;
10511;SDS011;5304;48.604;2.096;2023-08-06T05:15:01;3.97;;;2.27;;
10511;SDS011;5304;48.604;2.096;2023-08-06T05:17:45;6.13;;;2.10;;
10511;SDS011;5304;48.604;2.096;2023-08-06T05:20:29;3.47;;;1.87;;
10511;SDS011;5304;48.604;2.096;2023-08-06T05:23:14;5.17;;;2.73;;
10511;SDS011;5304;48.604;2.096;2023-08-06T05:25:58;3.73;;;2.40;;
10511;SDS011;5304;48.604;2.096;2023-08-06T05:28:42;4.60;;;2.20;;
10511;SDS011;5304;48.604;2.096;2023-08-06T05:31:27;3.07;;;1.93;;
10511;SDS011;5304;48.604;2.096;2023-08-06T05:34:12;6.20;;;2.30;;
10511;SDS011;5304;48.604;2.096;2023-08-06T05:36:57;6.40;;;2.30;;
10511;SDS011;5304;48.604;2.096;2023-08-06T05:39:41;3.10;;;2.07;;
10511;SDS011;5304;48.604;2.096;2023-08-06T05:42:25;2.43;;;1.70;;
10511;SDS011;5304;48.604;2.096;2023-08-06T05:45:10;4.17;;;2.10;;
10511;SDS011;5304;48.604;2.096;2023-08-06T05:47:54;6.77;;;2.20;;
10511;SDS011;5304;48.604;2.096;2023-08-06T05:50:41;4.77;;;1.87;;
10511;SDS011;5304;48.604;2.096;2023-08-06T05:53:25;4.10;;;1.97;;
10511;SDS011;5304;48.604;2.096;2023-08-06T05:56:10;5.37;;;1.90;;
10511;SDS011;5304;48.604;2.096;2023-08-06T05:58:54;2.57;;;1.60;;
10511;SDS011;5304;48.604;2.096;2023-08-06T06:01:38;4.87;;;2.00;;
10511;SDS011;5304;48.604;2.096;2023-08-06T06:04:23;4.90;;;2.27;;
10511;SDS011;5304;48.604;2.096;2023-08-06T06:07:08;3.57;;;1.60;;
10511;SDS011;5304;48.604;2.096;2023-08-06T06:09:52;3.47;;;1.67;;
10511;SDS011;5304;48.604;2.096;2023-08-06T06:12:38;2.93;;;2.20;;
10511;SDS011;5304;48.604;2.096;2023-08-06T06:15:22;7.57;;;2.07;;
10511;SDS011;5304;48.604;2.096;2023-08-06T06:18:06;4.83;;;2.47;;
10511;SDS011;5304;48.604;2.096;2023-08-06T06:20:51;3.53;;;1.50;;
10511;SDS011;5304;48.604;2.096;2023-08-06T06:23:35;3.00;;;1.70;;
10511;SDS011;5304;48.604;2.096;2023-08-06T06:26:20;3.13;;;1.87;;
10511;SDS011;5304;48.604;2.096;2023-08-06T06:29:04;6.10;;;1.67;;
10511;SDS011;5304;48.604;2.096;2023-08-06T06:31:48;4.53;;;1.60;;
10511;SDS011;5304;48.604;2.096;2023-08-06T06:34:32;3.17;;;1.50;;
10511;SDS011;5304;48.604;2.096;2023-08-06T06:37:17;3.73;;;1.80;;
10511;SDS011;5304;48.604;2.096;2023-08-06T06:40:01;4.37;;;1.67;;
10511;SDS011;5304;48.604;2.096;2023-08-06T06:42:45;3.73;;;1.83;;
10511;SDS011;5304;48.604;2.096;2023-08-06T06:45:29;2.13;;;1.30;;
10511;SDS011;5304;48.604;2.096;2023-08-06T06:48:14;2.80;;;1.40;;
10511;SDS011;5304;48.604;2.096;2023-08-06T06:50:58;2.33;;;1.33;;
10511;SDS011;5304;48.604;2.096;2023-08-06T06:53:43;3.60;;;1.80;;
10511;SDS011;5304;48.604;2.096;2023-08-06T06:56:27;4.60;;;1.83;;
10511;SDS011;5304;48.604;2.096;2023-08-06T06:59:11;2.70;;;1.40;;
10511;SDS011;5304;48.604;2.096;2023-08-06T07:01:55;3.97;;;1.63;;
10511;SDS011;5304;48.604;2.096;2023-08-06T07:04:40;3.80;;;1.73;;
10511;SDS011;5304;48.604;2.096;2023-08-06T07:07:24;3.13;;;1.43;;
10511;SDS011;5304;48.604;2.096;2023-08-06T07:10:10;4.13;;;1.93;;
10511;SDS011;5304;48.604;2.096;2023-08-06T07:12:55;5.67;;;1.83;;
10511;SDS011;5304;48.604;2.096;2023-08-06T07:15:39;1.40;;;1.20;;
10511;SDS011;5304;48.604;2.096;2023-08-06T07:18:23;4.70;;;1.60;;
10511;SDS011;5304;48.604;2.096;2023-08-06T07:21:08;3.77;;;1.33;;
10511;SDS011;5304;48.604;2.096;2023-08-06T07:23:52;4.13;;;1.60;;
10511;SDS011;5304;48.604;2.096;2023-08-06T07:26:37;3.10;;;1.60;;
10511;SDS011;5304;48.604;2.096;2023-08-06T07:29:21;1.63;;;1.47;;
10511;SDS011;5304;48.604;2.096;2023-08-06T07:32:06;1.90;;;1.60;;
10511;SDS011;5304;48.604;2.096;2023-08-06T07:34:51;3.00;;;1.63;;
10511;SDS011;5304;48.604;2.096;2023-08-06T07:37:40;3.40;;;1.30;;
10511;SDS011;5304;48.604;2.096;2023-08-06T07:40:24;3.83;;;1.60;;
10511;SDS011;5304;48.604;2.096;2023-08-06T07:43:09;1.97;;;1.50;;
10511;SDS011;5304;48.604;2.096;2023-08-06T07:45:53;2.03;;;1.50;;
10511;SDS011;5304;48.604;2.096;2023-08-06T07:48:40;3.33;;;1.60;;
10511;SDS011;5304;48.604;2.096;2023-08-06T07:51:25;4.70;;;1.47;;
10511;SDS011;5304;48.604;2.096;2023-08-06T07:54:09;5.57;;;1.63;;
10511;SDS011;5304;48.604;2.096;2023-08-06T07:56:53;5.00;;;1.58;;
10511;SDS011;5304;48.604;2.096;2023-08-06T07:59:37;2.67;;;1.60;;
10511;SDS011;5304;48.604;2.096;2023-08-06T08:02:23;3.08;;;1.75;;
10511;SDS011;5304;48.604;2.096;2023-08-06T08:05:07;2.70;;;1.55;;
10511;SDS011;5304;48.604;2.096;2023-08-06T08:07:52;3.65;;;1.50;;
10511;SDS011;5304;48.604;2.096;2023-08-06T08:10:36;2.00;;;1.52;;
10511;SDS011;5304;48.604;2.096;2023-08-06T08:13:22;4.22;;;1.65;;
10511;SDS011;5304;48.604;2.096;2023-08-06T08:16:06;3.50;;;1.55;;
10511;SDS011;5304;48.604;2.096;2023-08-06T08:18:51;3.38;;;2.10;;
10511;SDS011;5304;48.604;2.096;2023-08-06T08:21:35;3.40;;;1.80;;
10511;SDS011;5304;48.604;2.096;2023-08-06T08:24:19;3.63;;;1.50;;
10511;SDS011;5304;48.604;2.096;2023-08-06T08:27:07;3.25;;;1.60;;
10511;SDS011;5304;48.604;2.096;2023-08-06T08:29:51;4.15;;;1.55;;
10511;SDS011;5304;48.604;2.096;2023-08-06T08:32:36;2.97;;;1.55;;
10511;SDS011;5304;48.604;2.096;2023-08-06T08:35:20;3.35;;;1.70;;
10511;SDS011;5304;48.604;2.096;2023-08-06T08:38:04;2.92;;;1.25;;
10511;SDS011;5304;48.604;2.096;2023-08-06T08:40:50;3.47;;;1.75;;
10511;SDS011;5304;48.604;2.096;2023-08-06T08:43:37;4.35;;;1.70;;
10511;SDS011;5304;48.604;2.096;2023-08-06T08:46:24;4.35;;;2.22;;
10511;SDS011;5304;48.604;2.096;2023-08-06T08:49:10;6.63;;;3.38;;
10511;SDS011;5304;48.604;2.096;2023-08-06T08:51:55;6.70;;;2.92;;
10511;SDS011;5304;48.604;2.096;2023-08-06T08:54:40;4.15;;;2.45;;
10511;SDS011;5304;48.604;2.096;2023-08-06T08:57:27;2.40;;;1.75;;
10511;SDS011;5304;48.604;2.096;2023-08-06T09:00:11;2.30;;;1.80;;
10511;SDS011;5304;48.604;2.096;2023-08-06T09:02:57;2.40;;;1.70;;
10511;SDS011;5304;48.604;2.096;2023-08-06T09:05:44;3.58;;;1.70;;
10511;SDS011;5304;48.604;2.096;2023-08-06T09:08:32;3.47;;;1.83;;
10511;SDS011;5304;48.604;2.096;2023-08-06T09:11:20;3.80;;;1.80;;
10511;SDS011;5304;48.604;2.096;2023-08-06T09:14:05;2.27;;;1.60;;
10511;SDS011;5304;48.604;2.096;2023-08-06T09:16:51;3.63;;;2.10;;
10511;SDS011;5304;48.604;2.096;2023-08-06T09:19:36;3.33;;;1.70;;
10511;SDS011;5304;48.604;2.096;2023-08-06T09:22:21;2.67;;;1.67;;
10511;SDS011;5304;48.604;2.096;2023-08-06T09:25:06;4.30;;;2.00;;
10511;SDS011;5304;48.604;2.096;2023-08-06T09:27:53;3.67;;;1.67;;
10511;SDS011;5304;48.604;2.096;2023-08-06T09:30:37;3.90;;;1.50;;
10511;SDS011;5304;48.604;2.096;2023-08-06T09:33:22;3.60;;;1.70;;
10511;SDS011;5304;48.604;2.096;2023-08-06T09:36:08;3.35;;;1.70;;
10511;SDS011;5304;48.604;2.096;2023-08-06T09:38:53;4.43;;;1.52;;
10511;SDS011;5304;48.604;2.096;2023-08-06T09:41:38;3.13;;;1.58;;
10511;SDS011;5304;48.604;2.096;2023-08-06T09:44:24;3.83;;;1.75;;
10511;SDS011;5304;48.604;2.096;2023-08-06T09:47:09;4.07;;;1.83;;
10511;SDS011;5304;48.604;2.096;2023-08-06T09:49:53;1.75;;;1.60;;
10511;SDS011;5304;48.604;2.096;2023-08-06T09:52:40;2.45;;;1.60;;
10511;SDS011;5304;48.604;2.096;2023-08-06T09:55:26;2.50;;;1.90;;
10511;SDS011;5304;48.604;2.096;2023-08-06T09:58:11;4.05;;;1.80;;
10511;SDS011;5304;48.604;2.096;2023-08-06T10:00:58;2.65;;;1.88;;
10511;SDS011;5304;48.604;2.096;2023-08-06T10:03:43;2.65;;;1.75;;
10511;SDS011;5304;48.604;2.096;2023-08-06T10:06:29;3.25;;;1.60;;
10511;SDS011;5304;48.604;2.096;2023-08-06T10:09:14;5.43;;;1.80;;
10511;SDS011;5304;48.604;2.096;2023-08-06T10:11:58;3.42;;;1.90;;
10511;SDS011;5304;48.604;2.096;2023-08-06T10:14:44;3.90;;;1.90;;
10511;SDS011;5304;48.604;2.096;2023-08-06T10:17:30;3.45;;;1.73;;
10511;SDS011;5304;48.604;2.096;2023-08-06T10:20:16;2.43;;;2.00;;
10511;SDS011;5304;48.604;2.096;2023-08-06T10:23:03;5.68;;;1.98;;
10511;SDS011;5304;48.604;2.096;2023-08-06T10:25:53;1.90;;;1.70;;
10511;SDS011;5304;48.604;2.096;2023-08-06T10:28:39;2.92;;;1.48;;
10511;SDS011;5304;48.604;2.096;2023-08-06T10:37:44;2.47;;;1.77;;
10511;SDS011;5304;48.604;2.096;2023-08-06T10:40:29;1.85;;;1.48;;
10511;SDS011;5304;48.604;2.096;2023-08-06T10:43:27;2.40;;;1.55;;
10511;SDS011;5304;48.604;2.096;2023-08-06T10:46:28;2.92;;;1.75;;
10511;SDS011;5304;48.604;2.096;2023-08-06T10:49:12;4.18;;;1.98;;
10511;SDS011;5304;48.604;2.096;2023-08-06T10:52:01;3.77;;;2.10;;
10511;SDS011;5304;48.604;2.096;2023-08-06T10:54:45;3.05;;;1.65;;
10511;SDS011;5304;48.604;2.096;2023-08-06T10:57:29;2.23;;;1.50;;
10511;SDS011;5304;48.604;2.096;2023-08-06T11:00:13;4.40;;;1.92;;
10511;SDS011;5304;48.604;2.096;2023-08-06T11:02:57;3.45;;;1.65;;
10511;SDS011;5304;48.604;2.096;2023-08-06T11:05:48;2.33;;;1.65;;
10511;SDS011;5304;48.604;2.096;2023-08-06T11:08:37;1.85;;;1.50;;
10511;SDS011;5304;48.604;2.096;2023-08-06T11:11:22;3.40;;;1.50;;
10511;SDS011;5304;48.604;2.096;2023-08-06T11:14:07;3.47;;;2.25;;
10511;SDS011;5304;48.604;2.096;2023-08-06T11:16:59;3.17;;;1.48;;
10511;SDS011;5304;48.604;2.096;2023-08-06T11:19:43;2.58;;;1.38;;
10511;SDS011;5304;48.604;2.096;2023-08-06T11:22:28;2.22;;;1.35;;
10511;SDS011;5304;48.604;2.096;2023-08-06T11:25:12;2.30;;;1.17;;
10511;SDS011;5304;48.604;2.096;2023-08-06T11:27:56;1.45;;;1.25;;
10511;SDS011;5304;48.604;2.096;2023-08-06T11:30:41;2.15;;;1.40;;
10511;SDS011;5304;48.604;2.096;2023-08-06T11:33:25;2.67;;;2.00;;
10511;SDS011;5304;48.604;2.096;2023-08-06T11:36:10;2.03;;;1.45;;
10511;SDS011;5304;48.604;2.096;2023-08-06T11:38:55;3.90;;;1.58;;
10511;SDS011;5304;48.604;2.096;2023-08-06T11:41:40;1.65;;;1.38;;
10511;SDS011;5304;48.604;2.096;2023-08-06T11:44:26;3.17;;;1.33;;
10511;SDS011;5304;48.604;2.096;2023-08-06T11:47:14;2.50;;;1.45;;
10511;SDS011;5304;48.604;2.096;2023-08-06T11:50:00;4.05;;;1.60;;
10511;SDS011;5304;48.604;2.096;2023-08-06T11:52:44;2.92;;;1.90;;
10511;SDS011;5304;48.604;2.096;2023-08-06T11:55:29;2.22;;;1.60;;
10511;SDS011;5304;48.604;2.096;2023-08-06T11:58:13;3.25;;;1.52;;
10511;SDS011;5304;48.604;2.096;2023-08-06T12:01:01;3.65;;;1.70;;
10511;SDS011;5304;48.604;2.096;2023-08-06T12:03:45;2.88;;;1.60;;
10511;SDS011;5304;48.604;2.096;2023-08-06T12:06:29;2.60;;;1.60;;
10511;SDS011;5304;48.604;2.096;2023-08-06T12:09:14;2.67;;;1.65;;
10511;SDS011;5304;48.604;2.096;2023-08-06T12:11:58;3.63;;;1.80;;
10511;SDS011;5304;48.604;2.096;2023-08-06T12:14:42;2.22;;;1.65;;
10511;SDS011;5304;48.604;2.096;2023-08-06T12:17:27;3.17;;;2.33;;
10511;SDS011;5304;48.604;2.096;2023-08-06T12:20:11;2.58;;;1.60;;
10511;SDS011;5304;48.604;2.096;2023-08-06T12:22:56;3.55;;;2.10;;
10511;SDS011;5304;48.604;2.096;2023-08-06T12:25:40;3.28;;;1.80;;
10511;SDS011;5304;48.604;2.096;2023-08-06T12:28:25;3.88;;;1.80;;
10511;SDS011;5304;48.604;2.096;2023-08-06T12:31:09;3.00;;;1.77;;
10511;SDS011;5304;48.604;2.096;2023-08-06T12:33:54;4.32;;;1.90;;
10511;SDS011;5304;48.604;2.096;2023-08-06T12:36:38;2.05;;;1.73;;
10511;SDS011;5304;48.604;2.096;2023-08-06T12:39:22;3.78;;;1.92;;
10511;SDS011;5304;48.604;2.096;2023-08-06T12:42:07;2.80;;;1.55;;
10511;SDS011;5304;48.604;2.096;2023-08-06T12:44:52;2.85;;;1.90;;
10511;SDS011;5304;48.604;2.096;2023-08-06T12:47:36;2.50;;;1.80;;
10511;SDS011;5304;48.604;2.096;2023-08-06T12:50:20;3.15;;;1.90;;
10511;SDS011;5304;48.604;2.096;2023-08-06T12:53:05;2.72;;;1.77;;
10511;SDS011;5304;48.604;2.096;2023-08-06T12:55:49;2.38;;;1.85;;
10511;SDS011;5304;48.604;2.096;2023-08-06T12:58:33;2.60;;;1.83;;
10511;SDS011;5304;48.604;2.096;2023-08-06T13:01:18;2.53;;;1.70;;
10511;SDS011;5304;48.604;2.096;2023-08-06T13:04:02;2.95;;;1.60;;
10511;SDS011;5304;48.604;2.096;2023-08-06T13:06:47;2.70;;;1.98;;
10511;SDS011;5304;48.604;2.096;2023-08-06T13:09:32;2.92;;;1.70;;
10511;SDS011;5304;48.604;2.096;2023-08-06T13:12:17;2.13;;;1.75;;
10511;SDS011;5304;48.604;2.096;2023-08-06T13:15:04;4.97;;;1.88;;
10511;SDS011;5304;48.604;2.096;2023-08-06T13:17:48;2.55;;;1.75;;
10511;SDS011;5304;48.604;2.096;2023-08-06T13:20:33;2.15;;;1.60;;
10511;SDS011;5304;48.604;2.096;2023-08-06T13:23:17;2.95;;;1.67;;
10511;SDS011;5304;48.604;2.096;2023-08-06T13:26:01;2.72;;;1.55;;
10511;SDS011;5304;48.604;2.096;2023-08-06T13:28:45;4.15;;;1.63;;
10511;SDS011;5304;48.604;2.096;2023-08-06T13:31:30;3.10;;;1.60;;
10511;SDS011;5304;48.604;2.096;2023-08-06T13:34:14;1.85;;;1.52;;
10511;SDS011;5304;48.604;2.096;2023-08-06T13:37:00;2.60;;;1.60;;
10511;SDS011;5304;48.604;2.096;2023-08-06T13:39:44;1.88;;;1.35;;
10511;SDS011;5304;48.604;2.096;2023-08-06T13:42:28;4.93;;;1.23;;
10511;SDS011;5304;48.604;2.096;2023-08-06T13:45:13;3.60;;;1.65;;
10511;SDS011;5304;48.604;2.096;2023-08-06T13:47:57;1.80;;;1.50;;
10511;SDS011;5304;48.604;2.096;2023-08-06T13:50:41;1.85;;;1.60;;
10511;SDS011;5304;48.604;2.096;2023-08-06T13:53:26;2.50;;;1.65;;
10511;SDS011;5304;48.604;2.096;2023-08-06T13:56:13;4.25;;;1.42;;
10511;SDS011;5304;48.604;2.096;2023-08-06T13:59:01;3.17;;;1.60;;
10511;SDS011;5304;48.604;2.096;2023-08-06T14:01:45;2.20;;;1.40;;
10511;SDS011;5304;48.604;2.096;2023-08-06T14:04:30;3.97;;;1.50;;
10511;SDS011;5304;48.604;2.096;2023-08-06T14:07:14;1.95;;;1.25;;
10511;SDS011;5304;48.604;2.096;2023-08-06T14:09:58;2.78;;;1.40;;
10511;SDS011;5304;48.604;2.096;2023-08-06T14:12:42;2.03;;;1.30;;
10511;SDS011;5304;48.604;2.096;2023-08-06T14:15:26;1.50;;;1.40;;
10511;SDS011;5304;48.604;2.096;2023-08-06T14:18:10;1.77;;;1.15;;
10511;SDS011;5304;48.604;2.096;2023-08-06T14:20:55;2.17;;;1.10;;
10511;SDS011;5304;48.604;2.096;2023-08-06T14:23:39;3.92;;;1.27;;
10511;SDS011;5304;48.604;2.096;2023-08-06T14:26:25;1.50;;;1.10;;
10511;SDS011;5304;48.604;2.096;2023-08-06T14:29:09;3.83;;;1.45;;
10511;SDS011;5304;48.604;2.096;2023-08-06T14:31:53;1.23;;;1.13;;
10511;SDS011;5304;48.604;2.096;2023-08-06T14:34:38;1.55;;;1.23;;
10511;SDS011;5304;48.604;2.096;2023-08-06T14:37:22;2.13;;;1.15;;
10511;SDS011;5304;48.604;2.096;2023-08-06T14:40:06;1.17;;;1.00;;
10511;SDS011;5304;48.604;2.096;2023-08-06T14:42:51;3.95;;;0.90;;
10511;SDS011;5304;48.604;2.096;2023-08-06T14:45:39;1.20;;;1.00;;
10511;SDS011;5304;48.604;2.096;2023-08-06T14:48:24;2.08;;;1.10;;
10511;SDS011;5304;48.604;2.096;2023-08-06T14:51:08;1.02;;;0.90;;
10511;SDS011;5304;48.604;2.096;2023-08-06T14:53:53;2.92;;;0.90;;
10511;SDS011;5304;48.604;2.096;2023-08-06T14:56:37;1.20;;;1.05;;
10511;SDS011;5304;48.604;2.096;2023-08-06T14:59:22;2.00;;;0.90;;
10511;SDS011;5304;48.604;2.096;2023-08-06T15:02:06;1.75;;;1.10;;
10511;SDS011;5304;48.604;2.096;2023-08-06T15:04:51;2.42;;;1.27;;
10511;SDS011;5304;48.604;2.096;2023-08-06T15:07:35;2.40;;;1.10;;
10511;SDS011;5304;48.604;2.096;2023-08-06T15:10:20;3.00;;;1.10;;
10511;SDS011;5304;48.604;2.096;2023-08-06T15:13:05;2.05;;;1.10;;
10511;SDS011;5304;48.604;2.096;2023-08-06T15:15:50;1.38;;;1.15;;
10511;SDS011;5304;48.604;2.096;2023-08-06T15:18:34;1.88;;;1.00;;
10511;SDS011;5304;48.604;2.096;2023-08-06T15:21:19;1.27;;;0.90;;
10511;SDS011;5304;48.604;2.096;2023-08-06T15:24:03;1.15;;;0.98;;
10511;SDS011;5304;48.604;2.096;2023-08-06T15:26:48;1.90;;;0.80;;
10511;SDS011;5304;48.604;2.096;2023-08-06T15:29:32;1.20;;;1.10;;
10511;SDS011;5304;48.604;2.096;2023-08-06T15:32:16;5.15;;;1.13;;
10511;SDS011;5304;48.604;2.096;2023-08-06T15:35:01;0.80;;;0.80;;
10511;SDS011;5304;48.604;2.096;2023-08-06T15:37:47;2.70;;;1.08;;
10511;SDS011;5304;48.604;2.096;2023-08-06T15:40:31;2.65;;;1.27;;
10511;SDS011;5304;48.604;2.096;2023-08-06T15:43:16;0.95;;;0.82;;
10511;SDS011;5304;48.604;2.096;2023-08-06T15:46:00;1.77;;;1.00;;
10511;SDS011;5304;48.604;2.096;2023-08-06T15:48:44;1.45;;;1.08;;
10511;SDS011;5304;48.604;2.096;2023-08-06T15:51:29;1.95;;;1.10;;
10511;SDS011;5304;48.604;2.096;2023-08-06T15:54:13;2.88;;;1.20;;
10511;SDS011;5304;48.604;2.096;2023-08-06T15:56:58;5.15;;;1.13;;
10511;SDS011;5304;48.604;2.096;2023-08-06T15:59:42;2.67;;;1.10;;
10511;SDS011;5304;48.604;2.096;2023-08-06T16:02:26;1.10;;;0.90;;
10511;SDS011;5304;48.604;2.096;2023-08-06T16:05:11;1.40;;;1.02;;
10511;SDS011;5304;48.604;2.096;2023-08-06T16:07:55;1.73;;;1.10;;
10511;SDS011;5304;48.604;2.096;2023-08-06T16:10:40;1.00;;;0.90;;
10511;SDS011;5304;48.604;2.096;2023-08-06T16:13:28;1.05;;;0.80;;
10511;SDS011;5304;48.604;2.096;2023-08-06T16:16:12;1.15;;;0.90;;
10511;SDS011;5304;48.604;2.096;2023-08-06T16:18:56;2.75;;;0.80;;
10511;SDS011;5304;48.604;2.096;2023-08-06T16:21:41;1.33;;;0.85;;
10511;SDS011;5304;48.604;2.096;2023-08-06T16:24:25;1.13;;;0.80;;
10511;SDS011;5304;48.604;2.096;2023-08-06T16:27:09;1.73;;;0.88;;
10511;SDS011;5304;48.604;2.096;2023-08-06T16:29:54;0.90;;;0.80;;
10511;SDS011;5304;48.604;2.096;2023-08-06T16:32:38;1.33;;;1.00;;
10511;SDS011;5304;48.604;2.096;2023-08-06T16:35:23;1.50;;;0.80;;
10511;SDS011;5304;48.604;2.096;2023-08-06T16:38:07;1.00;;;0.73;;
10511;SDS011;5304;48.604;2.096;2023-08-06T16:40:52;1.92;;;0.77;;
10511;SDS011;5304;48.604;2.096;2023-08-06T16:43:37;1.23;;;0.70;;
10511;SDS011;5304;48.604;2.096;2023-08-06T16:46:21;0.98;;;0.80;;
10511;SDS011;5304;48.604;2.096;2023-08-06T16:49:06;2.15;;;0.80;;
10511;SDS011;5304;48.604;2.096;2023-08-06T16:51:50;1.42;;;0.70;;
10511;SDS011;5304;48.604;2.096;2023-08-06T16:54:34;1.85;;;0.80;;
10511;SDS011;5304;48.604;2.096;2023-08-06T16:57:19;1.40;;;0.90;;
10511;SDS011;5304;48.604;2.096;2023-08-06T17:00:03;2.45;;;1.00;;
10511;SDS011;5304;48.604;2.096;2023-08-06T17:02:49;1.10;;;1.00;;
10511;SDS011;5304;48.604;2.096;2023-08-06T17:05:33;0.80;;;0.80;;
10511;SDS011;5304;48.604;2.096;2023-08-06T17:08:17;1.95;;;1.05;;
10511;SDS011;5304;48.604;2.096;2023-08-06T17:11:01;1.50;;;1.00;;
10511;SDS011;5304;48.604;2.096;2023-08-06T17:13:46;2.28;;;0.80;;
10511;SDS011;5304;48.604;2.096;2023-08-06T17:16:30;2.63;;;0.80;;
10511;SDS011;5304;48.604;2.096;2023-08-06T17:19:14;0.70;;;0.70;;
10511;SDS011;5304;48.604;2.096;2023-08-06T17:21:59;1.40;;;0.90;;
10511;SDS011;5304;48.604;2.096;2023-08-06T17:24:44;1.10;;;1.00;;
10511;SDS011;5304;48.604;2.096;2023-08-06T17:27:28;3.08;;;0.80;;
10511;SDS011;5304;48.604;2.096;2023-08-06T17:30:12;1.73;;;0.95;;
10511;SDS011;5304;48.604;2.096;2023-08-06T17:32:57;1.63;;;0.90;;
10511;SDS011;5304;48.604;2.096;2023-08-06T17:35:42;2.03;;;0.88;;
10511;SDS011;5304;48.604;2.096;2023-08-06T17:38:27;1.23;;;0.80;;
10511;SDS011;5304;48.604;2.096;2023-08-06T17:41:11;1.00;;;0.90;;
10511;SDS011;5304;48.604;2.096;2023-08-06T17:43:55;1.95;;;0.80;;
10511;SDS011;5304;48.604;2.096;2023-08-06T17:46:40;3.80;;;1.00;;
10511;SDS011;5304;48.604;2.096;2023-08-06T17:49:24;3.20;;;0.87;;
10511;SDS011;5304;48.604;2.096;2023-08-06T17:52:08;1.17;;;0.80;;
10511;SDS011;5304;48.604;2.096;2023-08-06T17:54:53;1.58;;;0.80;;
10511;SDS011;5304;48.604;2.096;2023-08-06T17:57:37;1.02;;;0.88;;
10511;SDS011;5304;48.604;2.096;2023-08-06T18:00:22;0.93;;;0.80;;
10511;SDS011;5304;48.604;2.096;2023-08-06T18:03:08;4.00;;;0.90;;
10511;SDS011;5304;48.604;2.096;2023-08-06T18:05:53;1.00;;;0.90;;
10511;SDS011;5304;48.604;2.096;2023-08-06T18:08:41;0.88;;;0.80;;
10511;SDS011;5304;48.604;2.096;2023-08-06T18:11:25;2.17;;;0.90;;
10511;SDS011;5304;48.604;2.096;2023-08-06T18:14:10;2.57;;;0.90;;
10511;SDS011;5304;48.604;2.096;2023-08-06T18:16:54;1.10;;;1.00;;
10511;SDS011;5304;48.604;2.096;2023-08-06T18:19:38;4.45;;;0.90;;
10511;SDS011;5304;48.604;2.096;2023-08-06T18:22:23;0.97;;;0.80;;
10511;SDS011;5304;48.604;2.096;2023-08-06T18:25:07;1.00;;;0.70;;
10511;SDS011;5304;48.604;2.096;2023-08-06T18:27:52;1.10;;;1.00;;
10511;SDS011;5304;48.604;2.096;2023-08-06T18:30:36;1.43;;;0.90;;
10511;SDS011;5304;48.604;2.096;2023-08-06T18:33:20;1.43;;;0.90;;
10511;SDS011;5304;48.604;2.096;2023-08-06T18:36:05;3.00;;;1.00;;
10511;SDS011;5304;48.604;2.096;2023-08-06T18:38:49;1.20;;;0.80;;
10511;SDS011;5304;48.604;2.096;2023-08-06T18:41:33;1.10;;;1.00;;
10511;SDS011;5304;48.604;2.096;2023-08-06T18:44:18;0.80;;;0.80;;
10511;SDS011;5304;48.604;2.096;2023-08-06T18:47:02;2.10;;;1.20;;
10511;SDS011;5304;48.604;2.096;2023-08-06T18:49:47;2.20;;;0.90;;
10511;SDS011;5304;48.604;2.096;2023-08-06T18:52:31;3.07;;;1.00;;
10511;SDS011;5304;48.604;2.096;2023-08-06T18:55:15;1.30;;;1.00;;
10511;SDS011;5304;48.604;2.096;2023-08-06T18:57:59;2.87;;;0.93;;
10511;SDS011;5304;48.604;2.096;2023-08-06T19:00:46;3.30;;;0.80;;
10511;SDS011;5304;48.604;2.096;2023-08-06T19:03:31;1.27;;;1.00;;
10511;SDS011;5304;48.604;2.096;2023-08-06T19:06:15;1.60;;;1.00;;
10511;SDS011;5304;48.604;2.096;2023-08-06T19:09:00;1.83;;;0.97;;
10511;SDS011;5304;48.604;2.096;2023-08-06T19:11:44;2.10;;;1.00;;
10511;SDS011;5304;48.604;2.096;2023-08-06T19:14:29;1.30;;;1.00;;
10511;SDS011;5304;48.604;2.096;2023-08-06T19:17:13;1.50;;;0.83;;
10511;SDS011;5304;48.604;2.096;2023-08-06T19:19:58;1.30;;;0.90;;
10511;SDS011;5304;48.604;2.096;2023-08-06T19:22:42;0.93;;;0.93;;
10511;SDS011;5304;48.604;2.096;2023-08-06T19:25:26;0.77;;;0.77;;
10511;SDS011;5304;48.604;2.096;2023-08-06T19:28:11;1.10;;;0.90;;
10511;SDS011;5304;48.604;2.096;2023-08-06T19:30:57;0.93;;;0.83;;
10511;SDS011;5304;48.604;2.096;2023-08-06T19:33:42;2.80;;;1.10;;
10511;SDS011;5304;48.604;2.096;2023-08-06T19:36:26;1.10;;;0.90;;
10511;SDS011;5304;48.604;2.096;2023-08-06T19:39:10;2.20;;;1.17;;
10511;SDS011;5304;48.604;2.096;2023-08-06T19:41:54;2.63;;;1.20;;
10511;SDS011;5304;48.604;2.096;2023-08-06T19:44:38;3.03;;;1.33;;
10511;SDS011;5304;48.604;2.096;2023-08-06T19:47:23;2.67;;;0.90;;
10511;SDS011;5304;48.604;2.096;2023-08-06T19:50:07;2.03;;;1.13;;
10511;SDS011;5304;48.604;2.096;2023-08-06T19:52:51;1.27;;;1.07;;
10511;SDS011;5304;48.604;2.096;2023-08-06T19:55:39;3.53;;;1.03;;
10511;SDS011;5304;48.604;2.096;2023-08-06T19:58:27;1.70;;;1.20;;
10511;SDS011;5304;48.604;2.096;2023-08-06T20:01:13;2.17;;;1.20;;
10511;SDS011;5304;48.604;2.096;2023-08-06T20:03:57;2.73;;;1.20;;
10511;SDS011;5304;48.604;2.096;2023-08-06T20:06:41;3.50;;;1.20;;
10511;SDS011;5304;48.604;2.096;2023-08-06T20:09:26;2.00;;;1.20;;
10511;SDS011;5304;48.604;2.096;2023-08-06T20:12:10;3.40;;;1.20;;
10511;SDS011;5304;48.604;2.096;2023-08-06T20:14:54;2.17;;;1.60;;
10511;SDS011;5304;48.604;2.096;2023-08-06T20:17:38;2.87;;;1.73;;
10511;SDS011;5304;48.604;2.096;2023-08-06T20:20:23;2.90;;;1.77;;
10511;SDS011;5304;48.604;2.096;2023-08-06T20:23:07;2.23;;;1.63;;
10511;SDS011;5304;48.604;2.096;2023-08-06T20:25:51;6.43;;;1.67;;
10511;SDS011;5304;48.604;2.096;2023-08-06T20:28:36;2.77;;;1.80;;
10511;SDS011;5304;48.604;2.096;2023-08-06T20:31:20;2.00;;;1.73;;
10511;SDS011;5304;48.604;2.096;2023-08-06T20:34:04;2.63;;;1.37;;
10511;SDS011;5304;48.604;2.096;2023-08-06T20:36:48;2.30;;;1.40;;
10511;SDS011;5304;48.604;2.096;2023-08-06T20:39:33;2.17;;;1.40;;
10511;SDS011;5304;48.604;2.096;2023-08-06T20:42:17;3.47;;;1.50;;
10511;SDS011;5304;48.604;2.096;2023-08-06T20:45:02;3.60;;;1.33;;
10511;SDS011;5304;48.604;2.096;2023-08-06T20:47:46;1.20;;;1.10;;